sensor_id;sensor_type;location;lat;lon;timestamp;P1;durP1;ratioP1;P2;durP2;ratioP2
17384;SDS011;8810;48.680;8.894;2022-07-29T00:01:39;7.28;;;3.92;;
17384;SDS011;8810;48.680;8.894;2022-07-29T00:04:06;7.25;;;4.10;;
17384;SDS011;8810;48.680;8.894;2022-07-29T00:09:04;4.40;;;4.00;;
17384;SDS011;8810;48.680;8.894;2022-07-29T00:11:31;5.28;;;4.00;;
17384;SDS011;8810;48.680;8.894;2022-07-29T00:13:58;5.47;;;4.22;;
17384;SDS011;8810;48.680;8.894;2022-07-29T00:16:26;6.00;;;4.45;;
17384;SDS011;8810;48.680;8.894;2022-07-29T00:18:53;8.85;;;5.00;;
17384;SDS011;8810;48.680;8.894;2022-07-29T00:21:20;8.23;;;4.38;;
17384;SDS011;8810;48.680;8.894;2022-07-29T00:23:47;8.10;;;4.78;;
17384;SDS011;8810;48.680;8.894;2022-07-29T00:26:14;7.75;;;4.35;;
17384;SDS011;8810;48.680;8.894;2022-07-29T00:28:41;4.95;;;4.40;;
17384;SDS011;8810;48.680;8.894;2022-07-29T00:31:08;6.32;;;4.63;;
17384;SDS011;8810;48.680;8.894;2022-07-29T00:33:36;4.57;;;4.18;;
17384;SDS011;8810;48.680;8.894;2022-07-29T00:36:03;6.00;;;4.85;;
17384;SDS011;8810;48.680;8.894;2022-07-29T00:38:31;8.40;;;4.85;;
17384;SDS011;8810;48.680;8.894;2022-07-29T00:40:58;5.22;;;4.35;;
17384;SDS011;8810;48.680;8.894;2022-07-29T00:43:25;6.97;;;4.65;;
17384;SDS011;8810;48.680;8.894;2022-07-29T00:45:52;6.55;;;5.00;;
17384;SDS011;8810;48.680;8.894;2022-07-29T00:48:19;7.18;;;5.03;;
17384;SDS011;8810;48.680;8.894;2022-07-29T00:50:47;6.07;;;4.80;;
17384;SDS011;8810;48.680;8.894;2022-07-29T00:53:16;6.60;;;4.90;;
17384;SDS011;8810;48.680;8.894;2022-07-29T00:55:43;9.43;;;4.80;;
17384;SDS011;8810;48.680;8.894;2022-07-29T00:58:10;8.20;;;5.30;;
17384;SDS011;8810;48.680;8.894;2022-07-29T01:00:38;7.28;;;5.38;;
17384;SDS011;8810;48.680;8.894;2022-07-29T01:03:06;9.07;;;5.80;;
17384;SDS011;8810;48.680;8.894;2022-07-29T01:05:33;8.90;;;5.28;;
17384;SDS011;8810;48.680;8.894;2022-07-29T01:08:03;8.00;;;4.97;;
17384;SDS011;8810;48.680;8.894;2022-07-29T01:10:31;8.75;;;4.90;;
17384;SDS011;8810;48.680;8.894;2022-07-29T01:12:58;7.80;;;5.03;;
17384;SDS011;8810;48.680;8.894;2022-07-29T01:15:27;6.05;;;4.45;;
17384;SDS011;8810;48.680;8.894;2022-07-29T01:17:57;8.75;;;4.65;;
17384;SDS011;8810;48.680;8.894;2022-07-29T01:20:31;6.75;;;4.82;;
17384;SDS011;8810;48.680;8.894;2022-07-29T01:23:17;8.20;;;4.47;;
17384;SDS011;8810;48.680;8.894;2022-07-29T01:26:20;5.25;;;4.57;;
17384;SDS011;8810;48.680;8.894;2022-07-29T01:29:06;7.82;;;5.10;;
17384;SDS011;8810;48.680;8.894;2022-07-29T01:31:41;7.57;;;4.43;;
17384;SDS011;8810;48.680;8.894;2022-07-29T01:34:11;6.25;;;4.45;;
17384;SDS011;8810;48.680;8.894;2022-07-29T01:36:45;6.80;;;4.60;;
17384;SDS011;8810;48.680;8.894;2022-07-29T01:39:17;7.57;;;4.72;;
17384;SDS011;8810;48.680;8.894;2022-07-29T01:41:49;7.05;;;4.93;;
17384;SDS011;8810;48.680;8.894;2022-07-29T01:44:24;6.30;;;4.60;;
17384;SDS011;8810;48.680;8.894;2022-07-29T01:46:57;5.97;;;4.85;;
17384;SDS011;8810;48.680;8.894;2022-07-29T01:49:27;5.57;;;4.40;;
17384;SDS011;8810;48.680;8.894;2022-07-29T01:51:57;7.45;;;4.45;;
17384;SDS011;8810;48.680;8.894;2022-07-29T01:54:26;5.88;;;4.80;;
17384;SDS011;8810;48.680;8.894;2022-07-29T01:56:58;4.85;;;4.35;;
17384;SDS011;8810;48.680;8.894;2022-07-29T01:59:28;7.95;;;4.70;;
17384;SDS011;8810;48.680;8.894;2022-07-29T02:01:57;10.50;;;5.00;;
17384;SDS011;8810;48.680;8.894;2022-07-29T02:04:25;7.18;;;5.07;;
17384;SDS011;8810;48.680;8.894;2022-07-29T02:06:54;8.48;;;5.68;;
17384;SDS011;8810;48.680;8.894;2022-07-29T02:09:25;9.30;;;5.82;;
17384;SDS011;8810;48.680;8.894;2022-07-29T02:11:53;7.47;;;5.40;;
17384;SDS011;8810;48.680;8.894;2022-07-29T02:14:22;6.68;;;5.40;;
17384;SDS011;8810;48.680;8.894;2022-07-29T02:16:53;9.13;;;4.95;;
17384;SDS011;8810;48.680;8.894;2022-07-29T02:19:22;7.45;;;5.40;;
17384;SDS011;8810;48.680;8.894;2022-07-29T02:21:52;8.30;;;5.15;;
17384;SDS011;8810;48.680;8.894;2022-07-29T02:24:20;5.88;;;5.03;;
17384;SDS011;8810;48.680;8.894;2022-07-29T02:26:49;6.65;;;4.85;;
17384;SDS011;8810;48.680;8.894;2022-07-29T02:29:18;7.05;;;5.63;;
17384;SDS011;8810;48.680;8.894;2022-07-29T02:31:47;7.25;;;5.97;;
17384;SDS011;8810;48.680;8.894;2022-07-29T02:34:18;9.15;;;6.40;;
17384;SDS011;8810;48.680;8.894;2022-07-29T02:36:46;9.60;;;7.22;;
17384;SDS011;8810;48.680;8.894;2022-07-29T02:39:15;10.68;;;6.47;;
17384;SDS011;8810;48.680;8.894;2022-07-29T02:41:43;7.70;;;6.70;;
17384;SDS011;8810;48.680;8.894;2022-07-29T02:44:13;8.55;;;6.80;;
17384;SDS011;8810;48.680;8.894;2022-07-29T02:46:43;7.82;;;6.47;;
17384;SDS011;8810;48.680;8.894;2022-07-29T02:49:15;9.63;;;6.60;;
17384;SDS011;8810;48.680;8.894;2022-07-29T02:52:02;8.73;;;6.50;;
17384;SDS011;8810;48.680;8.894;2022-07-29T02:54:31;6.22;;;5.30;;
17384;SDS011;8810;48.680;8.894;2022-07-29T02:57:09;8.98;;;6.20;;
17384;SDS011;8810;48.680;8.894;2022-07-29T02:59:41;8.43;;;5.72;;
17384;SDS011;8810;48.680;8.894;2022-07-29T03:02:09;8.68;;;6.18;;
17384;SDS011;8810;48.680;8.894;2022-07-29T03:04:41;6.47;;;5.43;;
17384;SDS011;8810;48.680;8.894;2022-07-29T03:07:11;6.72;;;5.68;;
17384;SDS011;8810;48.680;8.894;2022-07-29T03:09:41;8.27;;;5.53;;
17384;SDS011;8810;48.680;8.894;2022-07-29T03:12:08;8.20;;;5.40;;
17384;SDS011;8810;48.680;8.894;2022-07-29T03:14:36;7.30;;;5.18;;
17384;SDS011;8810;48.680;8.894;2022-07-29T03:17:04;7.03;;;5.18;;
17384;SDS011;8810;48.680;8.894;2022-07-29T03:19:32;7.35;;;5.15;;
17384;SDS011;8810;48.680;8.894;2022-07-29T03:22:00;7.68;;;5.43;;
17384;SDS011;8810;48.680;8.894;2022-07-29T03:24:29;6.10;;;4.88;;
17384;SDS011;8810;48.680;8.894;2022-07-29T03:26:58;7.43;;;5.22;;
17384;SDS011;8810;48.680;8.894;2022-07-29T03:29:26;5.65;;;5.00;;
17384;SDS011;8810;48.680;8.894;2022-07-29T03:31:54;7.03;;;5.45;;
17384;SDS011;8810;48.680;8.894;2022-07-29T03:34:21;6.97;;;5.68;;
17384;SDS011;8810;48.680;8.894;2022-07-29T03:36:48;7.88;;;5.63;;
17384;SDS011;8810;48.680;8.894;2022-07-29T03:39:17;8.32;;;5.97;;
17384;SDS011;8810;48.680;8.894;2022-07-29T03:41:48;8.15;;;5.93;;
17384;SDS011;8810;48.680;8.894;2022-07-29T03:44:18;6.38;;;4.93;;
17384;SDS011;8810;48.680;8.894;2022-07-29T03:46:47;10.05;;;5.43;;
17384;SDS011;8810;48.680;8.894;2022-07-29T03:49:16;6.72;;;4.70;;
17384;SDS011;8810;48.680;8.894;2022-07-29T03:51:44;5.72;;;5.10;;
17384;SDS011;8810;48.680;8.894;2022-07-29T03:54:12;7.75;;;5.03;;
17384;SDS011;8810;48.680;8.894;2022-07-29T03:56:40;7.38;;;5.80;;
17384;SDS011;8810;48.680;8.894;2022-07-29T03:59:12;6.38;;;5.25;;
17384;SDS011;8810;48.680;8.894;2022-07-29T04:01:40;9.07;;;5.50;;
17384;SDS011;8810;48.680;8.894;2022-07-29T04:04:08;7.32;;;5.50;;
17384;SDS011;8810;48.680;8.894;2022-07-29T04:06:41;7.57;;;5.43;;
17384;SDS011;8810;48.680;8.894;2022-07-29T04:09:09;6.18;;;5.32;;
17384;SDS011;8810;48.680;8.894;2022-07-29T04:11:37;7.63;;;5.82;;
17384;SDS011;8810;48.680;8.894;2022-07-29T04:14:05;10.10;;;5.60;;
17384;SDS011;8810;48.680;8.894;2022-07-29T04:16:33;10.77;;;6.00;;
17384;SDS011;8810;48.680;8.894;2022-07-29T04:19:00;7.03;;;5.78;;
17384;SDS011;8810;48.680;8.894;2022-07-29T04:21:27;7.20;;;5.40;;
17384;SDS011;8810;48.680;8.894;2022-07-29T04:23:54;11.25;;;5.63;;
17384;SDS011;8810;48.680;8.894;2022-07-29T04:26:21;7.15;;;5.28;;
17384;SDS011;8810;48.680;8.894;2022-07-29T04:28:48;7.78;;;5.05;;
17384;SDS011;8810;48.680;8.894;2022-07-29T04:31:15;5.88;;;5.00;;
17384;SDS011;8810;48.680;8.894;2022-07-29T04:33:43;8.00;;;5.38;;
17384;SDS011;8810;48.680;8.894;2022-07-29T04:36:10;6.40;;;4.72;;
17384;SDS011;8810;48.680;8.894;2022-07-29T04:38:37;6.22;;;5.18;;
17384;SDS011;8810;48.680;8.894;2022-07-29T04:41:04;4.90;;;4.40;;
17384;SDS011;8810;48.680;8.894;2022-07-29T04:43:33;6.63;;;4.50;;
17384;SDS011;8810;48.680;8.894;2022-07-29T04:46:00;6.25;;;4.38;;
17384;SDS011;8810;48.680;8.894;2022-07-29T04:48:27;6.32;;;4.40;;
17384;SDS011;8810;48.680;8.894;2022-07-29T04:50:55;6.28;;;4.32;;
17384;SDS011;8810;48.680;8.894;2022-07-29T04:53:22;7.03;;;3.97;;
17384;SDS011;8810;48.680;8.894;2022-07-29T04:55:49;4.57;;;3.85;;
17384;SDS011;8810;48.680;8.894;2022-07-29T04:58:16;4.20;;;3.50;;
17384;SDS011;8810;48.680;8.894;2022-07-29T05:00:43;4.32;;;3.83;;
17384;SDS011;8810;48.680;8.894;2022-07-29T05:03:10;4.70;;;3.88;;
17384;SDS011;8810;48.680;8.894;2022-07-29T05:05:37;3.92;;;3.53;;
17384;SDS011;8810;48.680;8.894;2022-07-29T05:08:05;4.95;;;3.75;;
17384;SDS011;8810;48.680;8.894;2022-07-29T05:10:33;4.65;;;3.70;;
17384;SDS011;8810;48.680;8.894;2022-07-29T05:13:03;5.60;;;3.25;;
17384;SDS011;8810;48.680;8.894;2022-07-29T05:15:30;5.38;;;3.28;;
17384;SDS011;8810;48.680;8.894;2022-07-29T05:17:57;6.07;;;3.72;;
17384;SDS011;8810;48.680;8.894;2022-07-29T05:20:24;3.75;;;2.95;;
17384;SDS011;8810;48.680;8.894;2022-07-29T05:22:54;4.35;;;3.70;;
17384;SDS011;8810;48.680;8.894;2022-07-29T05:25:22;4.13;;;3.70;;
17384;SDS011;8810;48.680;8.894;2022-07-29T05:27:49;6.07;;;3.90;;
17384;SDS011;8810;48.680;8.894;2022-07-29T05:30:16;5.15;;;3.80;;
17384;SDS011;8810;48.680;8.894;2022-07-29T05:32:43;5.43;;;3.50;;
17384;SDS011;8810;48.680;8.894;2022-07-29T05:35:10;6.07;;;3.63;;
17384;SDS011;8810;48.680;8.894;2022-07-29T05:37:38;5.35;;;4.53;;
17384;SDS011;8810;48.680;8.894;2022-07-29T05:40:05;6.45;;;4.28;;
17384;SDS011;8810;48.680;8.894;2022-07-29T05:42:34;6.88;;;4.10;;
17384;SDS011;8810;48.680;8.894;2022-07-29T05:45:02;6.28;;;4.45;;
17384;SDS011;8810;48.680;8.894;2022-07-29T05:47:30;6.65;;;4.65;;
17384;SDS011;8810;48.680;8.894;2022-07-29T05:49:56;6.55;;;4.53;;
17384;SDS011;8810;48.680;8.894;2022-07-29T05:52:23;5.00;;;4.13;;
17384;SDS011;8810;48.680;8.894;2022-07-29T05:54:50;6.63;;;4.68;;
17384;SDS011;8810;48.680;8.894;2022-07-29T05:57:17;9.18;;;4.95;;
17384;SDS011;8810;48.680;8.894;2022-07-29T05:59:46;6.68;;;4.85;;
17384;SDS011;8810;48.680;8.894;2022-07-29T06:02:14;7.22;;;4.93;;
17384;SDS011;8810;48.680;8.894;2022-07-29T06:04:41;6.50;;;4.30;;
17384;SDS011;8810;48.680;8.894;2022-07-29T06:07:08;6.15;;;4.40;;
17384;SDS011;8810;48.680;8.894;2022-07-29T06:09:36;7.47;;;4.95;;
17384;SDS011;8810;48.680;8.894;2022-07-29T06:12:03;8.40;;;4.75;;
17384;SDS011;8810;48.680;8.894;2022-07-29T06:14:30;4.93;;;3.90;;
17384;SDS011;8810;48.680;8.894;2022-07-29T06:16:59;7.70;;;4.57;;
17384;SDS011;8810;48.680;8.894;2022-07-29T06:19:25;5.47;;;4.40;;
17384;SDS011;8810;48.680;8.894;2022-07-29T06:21:52;114.97;;;12.15;;
17384;SDS011;8810;48.680;8.894;2022-07-29T06:24:19;9.05;;;4.53;;
17384;SDS011;8810;48.680;8.894;2022-07-29T06:26:46;6.78;;;4.45;;
17384;SDS011;8810;48.680;8.894;2022-07-29T06:29:13;6.55;;;5.20;;
17384;SDS011;8810;48.680;8.894;2022-07-29T06:31:40;5.88;;;4.65;;
17384;SDS011;8810;48.680;8.894;2022-07-29T06:34:09;8.65;;;4.63;;
17384;SDS011;8810;48.680;8.894;2022-07-29T06:36:36;6.70;;;5.00;;
17384;SDS011;8810;48.680;8.894;2022-07-29T06:39:04;7.40;;;4.95;;
17384;SDS011;8810;48.680;8.894;2022-07-29T06:41:32;8.00;;;4.43;;
17384;SDS011;8810;48.680;8.894;2022-07-29T06:43:59;6.65;;;4.50;;
17384;SDS011;8810;48.680;8.894;2022-07-29T06:46:26;5.63;;;4.53;;
17384;SDS011;8810;48.680;8.894;2022-07-29T06:48:53;7.95;;;4.28;;
17384;SDS011;8810;48.680;8.894;2022-07-29T06:51:22;7.47;;;4.38;;
17384;SDS011;8810;48.680;8.894;2022-07-29T06:53:49;5.15;;;4.07;;
17384;SDS011;8810;48.680;8.894;2022-07-29T06:56:17;4.47;;;3.92;;
17384;SDS011;8810;48.680;8.894;2022-07-29T06:58:44;4.90;;;4.38;;
17384;SDS011;8810;48.680;8.894;2022-07-29T07:01:11;5.38;;;4.00;;
17384;SDS011;8810;48.680;8.894;2022-07-29T07:03:38;6.82;;;4.35;;
17384;SDS011;8810;48.680;8.894;2022-07-29T07:06:05;4.72;;;3.92;;
17384;SDS011;8810;48.680;8.894;2022-07-29T07:08:33;4.35;;;3.95;;
17384;SDS011;8810;48.680;8.894;2022-07-29T07:11:00;5.65;;;4.45;;
17384;SDS011;8810;48.680;8.894;2022-07-29T07:13:27;7.43;;;4.28;;
17384;SDS011;8810;48.680;8.894;2022-07-29T07:15:59;4.72;;;4.07;;
17384;SDS011;8810;48.680;8.894;2022-07-29T07:18:26;10.95;;;4.43;;
17384;SDS011;8810;48.680;8.894;2022-07-29T07:20:53;6.20;;;4.18;;
17384;SDS011;8810;48.680;8.894;2022-07-29T07:23:20;4.10;;;3.67;;
17384;SDS011;8810;48.680;8.894;2022-07-29T07:25:49;6.45;;;3.88;;
17384;SDS011;8810;48.680;8.894;2022-07-29T07:28:16;5.45;;;4.15;;
17384;SDS011;8810;48.680;8.894;2022-07-29T07:30:44;8.45;;;4.10;;
17384;SDS011;8810;48.680;8.894;2022-07-29T07:33:11;6.68;;;3.70;;
17384;SDS011;8810;48.680;8.894;2022-07-29T07:35:38;6.63;;;4.03;;
17384;SDS011;8810;48.680;8.894;2022-07-29T07:38:05;7.10;;;3.80;;
17384;SDS011;8810;48.680;8.894;2022-07-29T07:40:32;4.30;;;3.90;;
17384;SDS011;8810;48.680;8.894;2022-07-29T07:43:00;6.22;;;4.07;;
17384;SDS011;8810;48.680;8.894;2022-07-29T07:45:27;4.63;;;3.88;;
17384;SDS011;8810;48.680;8.894;2022-07-29T07:47:54;5.22;;;3.97;;
17384;SDS011;8810;48.680;8.894;2022-07-29T07:50:21;6.00;;;3.45;;
17384;SDS011;8810;48.680;8.894;2022-07-29T07:52:49;4.43;;;3.85;;
17384;SDS011;8810;48.680;8.894;2022-07-29T07:55:17;10.02;;;3.92;;
17384;SDS011;8810;48.680;8.894;2022-07-29T07:57:44;5.85;;;4.03;;
17384;SDS011;8810;48.680;8.894;2022-07-29T08:00:14;5.13;;;3.67;;
17384;SDS011;8810;48.680;8.894;2022-07-29T08:02:42;8.80;;;3.90;;
17384;SDS011;8810;48.680;8.894;2022-07-29T08:05:10;5.95;;;3.70;;
17384;SDS011;8810;48.680;8.894;2022-07-29T08:07:41;6.88;;;3.67;;
17384;SDS011;8810;48.680;8.894;2022-07-29T08:10:09;4.20;;;3.78;;
17384;SDS011;8810;48.680;8.894;2022-07-29T08:12:36;5.85;;;3.60;;
17384;SDS011;8810;48.680;8.894;2022-07-29T08:15:03;5.13;;;3.47;;
17384;SDS011;8810;48.680;8.894;2022-07-29T08:17:34;4.78;;;3.50;;
17384;SDS011;8810;48.680;8.894;2022-07-29T08:20:01;5.22;;;3.38;;
17384;SDS011;8810;48.680;8.894;2022-07-29T08:22:28;6.15;;;3.70;;
17384;SDS011;8810;48.680;8.894;2022-07-29T08:24:55;4.38;;;3.67;;
17384;SDS011;8810;48.680;8.894;2022-07-29T08:27:22;6.22;;;3.78;;
17384;SDS011;8810;48.680;8.894;2022-07-29T08:29:51;9.25;;;3.65;;
17384;SDS011;8810;48.680;8.894;2022-07-29T08:32:18;5.35;;;3.83;;
17384;SDS011;8810;48.680;8.894;2022-07-29T08:34:46;5.65;;;3.70;;
17384;SDS011;8810;48.680;8.894;2022-07-29T08:37:13;5.78;;;3.63;;
17384;SDS011;8810;48.680;8.894;2022-07-29T08:39:40;4.70;;;3.42;;
17384;SDS011;8810;48.680;8.894;2022-07-29T08:42:07;5.95;;;3.20;;
17384;SDS011;8810;48.680;8.894;2022-07-29T08:44:34;6.60;;;3.63;;
17384;SDS011;8810;48.680;8.894;2022-07-29T08:47:02;5.35;;;3.55;;
17384;SDS011;8810;48.680;8.894;2022-07-29T08:49:29;5.72;;;3.50;;
17384;SDS011;8810;48.680;8.894;2022-07-29T08:51:58;3.78;;;3.40;;
17384;SDS011;8810;48.680;8.894;2022-07-29T08:54:27;4.53;;;3.65;;
17384;SDS011;8810;48.680;8.894;2022-07-29T08:56:55;5.13;;;3.20;;
17384;SDS011;8810;48.680;8.894;2022-07-29T08:59:23;4.05;;;3.22;;
17384;SDS011;8810;48.680;8.894;2022-07-29T09:01:53;5.47;;;3.22;;
17384;SDS011;8810;48.680;8.894;2022-07-29T09:04:20;6.97;;;3.40;;
17384;SDS011;8810;48.680;8.894;2022-07-29T09:06:49;5.55;;;3.30;;
17384;SDS011;8810;48.680;8.894;2022-07-29T09:09:20;9.50;;;3.42;;
17384;SDS011;8810;48.680;8.894;2022-07-29T09:11:48;10.05;;;3.47;;
17384;SDS011;8810;48.680;8.894;2022-07-29T09:14:15;17.02;;;3.60;;
17384;SDS011;8810;48.680;8.894;2022-07-29T09:16:45;5.05;;;3.25;;
17384;SDS011;8810;48.680;8.894;2022-07-29T09:19:21;7.35;;;4.07;;
17384;SDS011;8810;48.680;8.894;2022-07-29T09:21:49;5.30;;;3.65;;
17384;SDS011;8810;48.680;8.894;2022-07-29T09:27:19;5.88;;;3.53;;
17384;SDS011;8810;48.680;8.894;2022-07-29T09:29:54;6.95;;;3.65;;
17384;SDS011;8810;48.680;8.894;2022-07-29T09:32:23;4.85;;;3.70;;
17384;SDS011;8810;48.680;8.894;2022-07-29T09:34:51;5.13;;;3.63;;
17384;SDS011;8810;48.680;8.894;2022-07-29T09:37:45;4.10;;;3.67;;
17384;SDS011;8810;48.680;8.894;2022-07-29T09:40:15;4.93;;;4.13;;
17384;SDS011;8810;48.680;8.894;2022-07-29T09:42:43;6.00;;;4.10;;
17384;SDS011;8810;48.680;8.894;2022-07-29T09:45:12;7.95;;;3.88;;
17384;SDS011;8810;48.680;8.894;2022-07-29T09:47:51;5.93;;;4.30;;
17384;SDS011;8810;48.680;8.894;2022-07-29T09:50:19;6.53;;;4.25;;
17384;SDS011;8810;48.680;8.894;2022-07-29T09:52:49;5.97;;;4.00;;
17384;SDS011;8810;48.680;8.894;2022-07-29T09:55:19;6.13;;;4.13;;
17384;SDS011;8810;48.680;8.894;2022-07-29T09:57:46;6.68;;;4.28;;
17384;SDS011;8810;48.680;8.894;2022-07-29T10:00:14;5.28;;;3.83;;
17384;SDS011;8810;48.680;8.894;2022-07-29T10:02:43;8.98;;;3.78;;
17384;SDS011;8810;48.680;8.894;2022-07-29T10:05:16;5.75;;;3.53;;
17384;SDS011;8810;48.680;8.894;2022-07-29T10:07:46;11.35;;;4.82;;
17384;SDS011;8810;48.680;8.894;2022-07-29T10:10:24;11.52;;;5.40;;
17384;SDS011;8810;48.680;8.894;2022-07-29T10:12:53;6.40;;;3.05;;
17384;SDS011;8810;48.680;8.894;2022-07-29T10:15:22;4.15;;;3.42;;
17384;SDS011;8810;48.680;8.894;2022-07-29T10:17:50;9.77;;;4.13;;
17384;SDS011;8810;48.680;8.894;2022-07-29T10:20:17;8.18;;;3.72;;
17384;SDS011;8810;48.680;8.894;2022-07-29T10:22:44;6.40;;;3.42;;
17384;SDS011;8810;48.680;8.894;2022-07-29T10:25:13;10.13;;;4.28;;
17384;SDS011;8810;48.680;8.894;2022-07-29T10:27:42;5.22;;;2.97;;
17384;SDS011;8810;48.680;8.894;2022-07-29T10:30:11;5.25;;;3.30;;
17384;SDS011;8810;48.680;8.894;2022-07-29T10:32:43;6.25;;;3.38;;
17384;SDS011;8810;48.680;8.894;2022-07-29T10:35:44;11.27;;;4.47;;
17384;SDS011;8810;48.680;8.894;2022-07-29T10:44:12;10.77;;;5.80;;
17384;SDS011;8810;48.680;8.894;2022-07-29T10:46:41;12.38;;;5.93;;
17384;SDS011;8810;48.680;8.894;2022-07-29T10:49:10;16.77;;;6.15;;
17384;SDS011;8810;48.680;8.894;2022-07-29T10:51:58;16.48;;;7.45;;
17384;SDS011;8810;48.680;8.894;2022-07-29T10:57:24;18.40;;;10.15;;
17384;SDS011;8810;48.680;8.894;2022-07-29T11:02:56;34.03;;;15.68;;
17384;SDS011;8810;48.680;8.894;2022-07-29T11:05:24;26.48;;;14.35;;
17384;SDS011;8810;48.680;8.894;2022-07-29T11:10:45;20.10;;;12.55;;
17384;SDS011;8810;48.680;8.894;2022-07-29T11:13:13;23.45;;;15.07;;
17384;SDS011;8810;48.680;8.894;2022-07-29T11:16:18;28.52;;;17.23;;
17384;SDS011;8810;48.680;8.894;2022-07-29T11:21:45;23.90;;;16.23;;
17384;SDS011;8810;48.680;8.894;2022-07-29T11:24:15;28.67;;;17.63;;
17384;SDS011;8810;48.680;8.894;2022-07-29T11:26:44;27.60;;;16.85;;
17384;SDS011;8810;48.680;8.894;2022-07-29T11:29:16;18.83;;;15.18;;
17384;SDS011;8810;48.680;8.894;2022-07-29T11:31:48;23.17;;;16.38;;
17384;SDS011;8810;48.680;8.894;2022-07-29T11:34:22;22.58;;;14.93;;
17384;SDS011;8810;48.680;8.894;2022-07-29T11:39:47;19.67;;;10.95;;
17384;SDS011;8810;48.680;8.894;2022-07-29T11:42:43;14.57;;;10.68;;
17384;SDS011;8810;48.680;8.894;2022-07-29T11:45:12;14.02;;;9.80;;
17384;SDS011;8810;48.680;8.894;2022-07-29T11:47:47;15.27;;;10.15;;
17384;SDS011;8810;48.680;8.894;2022-07-29T11:50:17;14.90;;;9.52;;
17384;SDS011;8810;48.680;8.894;2022-07-29T11:52:52;12.68;;;6.10;;
17384;SDS011;8810;48.680;8.894;2022-07-29T11:55:20;14.10;;;7.25;;
17384;SDS011;8810;48.680;8.894;2022-07-29T11:57:50;14.18;;;7.75;;
17384;SDS011;8810;48.680;8.894;2022-07-29T12:00:22;14.10;;;7.90;;
17384;SDS011;8810;48.680;8.894;2022-07-29T12:02:52;12.45;;;7.80;;
17384;SDS011;8810;48.680;8.894;2022-07-29T12:05:19;9.50;;;5.78;;
17384;SDS011;8810;48.680;8.894;2022-07-29T12:07:47;13.20;;;6.10;;
17384;SDS011;8810;48.680;8.894;2022-07-29T12:10:14;18.73;;;6.05;;
17384;SDS011;8810;48.680;8.894;2022-07-29T12:12:42;20.58;;;6.25;;
17384;SDS011;8810;48.680;8.894;2022-07-29T12:15:15;18.27;;;6.10;;
17384;SDS011;8810;48.680;8.894;2022-07-29T12:17:45;21.45;;;6.57;;
17384;SDS011;8810;48.680;8.894;2022-07-29T12:20:21;11.98;;;6.32;;
17384;SDS011;8810;48.680;8.894;2022-07-29T12:22:49;13.48;;;6.30;;
17384;SDS011;8810;48.680;8.894;2022-07-29T12:25:18;13.05;;;6.53;;
17384;SDS011;8810;48.680;8.894;2022-07-29T12:27:47;12.80;;;6.28;;
17384;SDS011;8810;48.680;8.894;2022-07-29T12:30:23;9.45;;;5.38;;
17384;SDS011;8810;48.680;8.894;2022-07-29T12:33:01;11.35;;;5.97;;
17384;SDS011;8810;48.680;8.894;2022-07-29T12:35:37;11.05;;;5.35;;
17384;SDS011;8810;48.680;8.894;2022-07-29T12:38:05;9.48;;;5.57;;
17384;SDS011;8810;48.680;8.894;2022-07-29T12:40:32;9.02;;;5.00;;
17384;SDS011;8810;48.680;8.894;2022-07-29T12:43:09;9.80;;;5.40;;
17384;SDS011;8810;48.680;8.894;2022-07-29T12:45:37;8.40;;;5.18;;
17384;SDS011;8810;48.680;8.894;2022-07-29T12:48:05;10.27;;;4.97;;
17384;SDS011;8810;48.680;8.894;2022-07-29T12:50:34;8.93;;;4.57;;
17384;SDS011;8810;48.680;8.894;2022-07-29T12:53:10;7.40;;;5.00;;
17384;SDS011;8810;48.680;8.894;2022-07-29T12:55:39;6.70;;;5.20;;
17384;SDS011;8810;48.680;8.894;2022-07-29T12:58:14;9.25;;;4.60;;
17384;SDS011;8810;48.680;8.894;2022-07-29T13:00:58;6.47;;;4.72;;
17384;SDS011;8810;48.680;8.894;2022-07-29T13:03:28;6.18;;;4.03;;
17384;SDS011;8810;48.680;8.894;2022-07-29T13:05:55;6.28;;;4.50;;
17384;SDS011;8810;48.680;8.894;2022-07-29T13:08:23;6.10;;;4.53;;
17384;SDS011;8810;48.680;8.894;2022-07-29T13:10:50;8.13;;;5.03;;
17384;SDS011;8810;48.680;8.894;2022-07-29T13:13:17;7.15;;;5.50;;
17384;SDS011;8810;48.680;8.894;2022-07-29T13:15:44;10.45;;;6.97;;
17384;SDS011;8810;48.680;8.894;2022-07-29T13:18:29;12.05;;;9.18;;
17384;SDS011;8810;48.680;8.894;2022-07-29T13:20:57;12.63;;;9.80;;
17384;SDS011;8810;48.680;8.894;2022-07-29T13:23:37;9.80;;;8.85;;
17384;SDS011;8810;48.680;8.894;2022-07-29T13:26:05;11.80;;;8.10;;
17384;SDS011;8810;48.680;8.894;2022-07-29T13:28:32;8.60;;;7.53;;
17384;SDS011;8810;48.680;8.894;2022-07-29T13:31:00;8.80;;;7.90;;
17384;SDS011;8810;48.680;8.894;2022-07-29T13:33:27;9.25;;;6.95;;
17384;SDS011;8810;48.680;8.894;2022-07-29T13:35:54;7.57;;;5.70;;
17384;SDS011;8810;48.680;8.894;2022-07-29T13:38:21;10.07;;;6.50;;
17384;SDS011;8810;48.680;8.894;2022-07-29T13:40:49;8.90;;;6.78;;
17384;SDS011;8810;48.680;8.894;2022-07-29T13:43:16;6.82;;;6.22;;
17384;SDS011;8810;48.680;8.894;2022-07-29T13:45:43;7.50;;;6.43;;
17384;SDS011;8810;48.680;8.894;2022-07-29T13:48:09;7.22;;;6.50;;
17384;SDS011;8810;48.680;8.894;2022-07-29T13:50:36;8.32;;;6.18;;
17384;SDS011;8810;48.680;8.894;2022-07-29T13:53:03;7.38;;;6.68;;
17384;SDS011;8810;48.680;8.894;2022-07-29T13:55:30;9.57;;;6.32;;
17384;SDS011;8810;48.680;8.894;2022-07-29T13:57:58;10.38;;;6.68;;
17384;SDS011;8810;48.680;8.894;2022-07-29T14:00:26;10.45;;;7.65;;
17384;SDS011;8810;48.680;8.894;2022-07-29T14:02:53;11.27;;;7.65;;
17384;SDS011;8810;48.680;8.894;2022-07-29T14:05:20;7.47;;;6.70;;
17384;SDS011;8810;48.680;8.894;2022-07-29T14:07:47;7.95;;;6.72;;
17384;SDS011;8810;48.680;8.894;2022-07-29T14:10:15;9.05;;;7.35;;
17384;SDS011;8810;48.680;8.894;2022-07-29T14:12:42;9.20;;;6.70;;
17384;SDS011;8810;48.680;8.894;2022-07-29T14:15:10;10.70;;;7.45;;
17384;SDS011;8810;48.680;8.894;2022-07-29T14:17:37;6.80;;;6.10;;
17384;SDS011;8810;48.680;8.894;2022-07-29T14:20:04;8.80;;;5.72;;
17384;SDS011;8810;48.680;8.894;2022-07-29T14:22:32;6.40;;;5.80;;
17384;SDS011;8810;48.680;8.894;2022-07-29T14:24:59;8.70;;;5.90;;
17384;SDS011;8810;48.680;8.894;2022-07-29T14:27:25;7.47;;;6.00;;
17384;SDS011;8810;48.680;8.894;2022-07-29T14:29:52;8.05;;;5.82;;
17384;SDS011;8810;48.680;8.894;2022-07-29T14:32:21;8.48;;;6.75;;
17384;SDS011;8810;48.680;8.894;2022-07-29T14:34:47;8.45;;;5.97;;
17384;SDS011;8810;48.680;8.894;2022-07-29T14:37:14;6.40;;;5.68;;
17384;SDS011;8810;48.680;8.894;2022-07-29T14:39:41;6.88;;;5.82;;
17384;SDS011;8810;48.680;8.894;2022-07-29T14:42:08;9.73;;;6.07;;
17384;SDS011;8810;48.680;8.894;2022-07-29T14:44:35;7.20;;;6.50;;
17384;SDS011;8810;48.680;8.894;2022-07-29T14:47:02;10.25;;;6.30;;
17384;SDS011;8810;48.680;8.894;2022-07-29T14:49:30;6.88;;;5.82;;
17384;SDS011;8810;48.680;8.894;2022-07-29T14:51:57;6.00;;;5.40;;
17384;SDS011;8810;48.680;8.894;2022-07-29T14:54:24;7.00;;;5.70;;
17384;SDS011;8810;48.680;8.894;2022-07-29T14:56:51;9.48;;;6.13;;
17384;SDS011;8810;48.680;8.894;2022-07-29T14:59:21;6.50;;;5.88;;
17384;SDS011;8810;48.680;8.894;2022-07-29T15:01:48;8.50;;;6.00;;
17384;SDS011;8810;48.680;8.894;2022-07-29T15:04:15;6.82;;;6.10;;
17384;SDS011;8810;48.680;8.894;2022-07-29T15:06:44;6.65;;;6.00;;
17384;SDS011;8810;48.680;8.894;2022-07-29T15:09:11;7.43;;;6.07;;
17384;SDS011;8810;48.680;8.894;2022-07-29T15:11:38;6.55;;;5.80;;
17384;SDS011;8810;48.680;8.894;2022-07-29T15:14:04;9.30;;;5.47;;
17384;SDS011;8810;48.680;8.894;2022-07-29T15:16:32;6.75;;;5.63;;
17384;SDS011;8810;48.680;8.894;2022-07-29T15:18:59;7.50;;;5.82;;
17384;SDS011;8810;48.680;8.894;2022-07-29T15:21:26;6.20;;;5.60;;
17384;SDS011;8810;48.680;8.894;2022-07-29T15:23:54;6.88;;;5.93;;
17384;SDS011;8810;48.680;8.894;2022-07-29T15:26:21;7.20;;;6.47;;
17384;SDS011;8810;48.680;8.894;2022-07-29T15:28:48;8.98;;;5.93;;
17384;SDS011;8810;48.680;8.894;2022-07-29T15:31:15;6.70;;;6.00;;
17384;SDS011;8810;48.680;8.894;2022-07-29T15:33:43;9.38;;;6.53;;
17384;SDS011;8810;48.680;8.894;2022-07-29T15:36:10;10.20;;;6.43;;